Time;durP1;ratioP1;P1;durP2;ratioP2;P2;SDS_P1;SDS_P2;PMS_P1;PMS_P2;Temp;Humidity;BMP_temperature;BMP_pressure;BME280_temperature;BME280_humidity;BME280_pressure;Samples;Min_cycle;Max_cycle;Signal;HPM_P1;HPM_P2
2023/12/24 00:01:05;;;;;;;;;;;;;;;16.41;41.96;99651.72;5073896;28;1293;-46
2023/12/24 00:03:31;;;;;;;;;;;;;;;17.53;39.66;99665.59;5077399;28;1039;-51
2023/12/24 00:05:56;;;;;;;;;;;;;;;16.53;41.75;99662.19;5073495;28;1126;-49
2023/12/24 00:08:22;;;;;;;;;;;;;;;16.00;42.73;99662.50;5066838;28;1060;-45
2023/12/24 00:10:47;;;;;;;;;;;;;;;16.01;42.93;99653.97;5069077;28;2463;-46
2023/12/24 00:13:13;;;;;;;;;;;;;;;17.50;39.80;99660.72;5067486;28;1056;-51
2023/12/24 00:15:38;;;;;;;;;;;;;;;16.84;40.91;99660.84;5073132;28;1071;-48
2023/12/24 00:18:04;;;;;;;;;;;;;;;16.15;42.48;99673.25;5067435;28;1272;-48
2023/12/24 00:20:29;;;;;;;;;;;;;;;15.83;43.37;99669.31;5070392;28;1068;-48
2023/12/24 00:23:07;;;;;;;;;;;;;;;16.87;41.16;99673.97;5048013;28;1164;-49
2023/12/24 00:25:36;;;;;;;;;;;;;;;17.41;39.71;99680.66;5076620;28;1027;-49
2023/12/24 00:28:01;;;;;;;;;;;;;;;16.42;42.09;99686.28;5077109;28;1096;-48
2023/12/24 00:30:27;;;;;;;;;;;;;;;15.94;43.22;99691.91;5076385;28;1913;-49
2023/12/24 00:32:55;;;;;;;;;;;;;;;15.68;43.61;99673.06;5065121;28;1068;-48
2023/12/24 00:35:21;;;;;;;;;;;;;;;16.98;41.12;99667.22;5063748;28;1187;-46
2023/12/24 00:37:47;;;;;;;;;;;;;;;17.15;40.35;99674.03;5057771;28;1098;-47
2023/12/24 00:40:13;;;;;;;;;;;;;;;16.32;42.44;99672.69;5043341;28;1160;-49
2023/12/24 00:42:39;;;;;;;;;;;;;;;15.89;43.20;99672.78;5053317;28;2522;-47
2023/12/24 00:45:05;;;;;;;;;;;;;;;16.48;42.15;99672.44;5076569;28;1106;-47
2023/12/24 00:47:30;;;;;;;;;;;;;;;17.51;39.97;99673.34;5075797;28;1041;-48
2023/12/24 00:49:56;;;;;;;;;;;;;;;16.41;42.03;99687.38;5058568;28;1906;-49
2023/12/24 00:52:21;;;;;;;;;;;;;;;15.99;42.98;99680.88;5076364;28;1082;-50
2023/12/24 00:54:47;;;;;;;;;;;;;;;15.66;44.07;99675.25;5076107;28;1031;-50
2023/12/24 00:57:14;;;;;;;;;;;;;;;17.21;40.77;99673.66;5076476;28;1036;-49
2023/12/24 00:59:39;;;;;;;;;;;;;;;16.98;40.80;99672.69;5075519;28;1117;-50
2023/12/24 01:02:05;;;;;;;;;;;;;;;16.22;42.66;99681.09;5064926;28;1143;-50
2023/12/24 01:04:30;;;;;;;;;;;;;;;15.88;43.34;99679.41;5074327;28;1205;-51
2023/12/24 01:06:57;;;;;;;;;;;;;;;16.09;43.23;99674.44;5076057;28;1297;-48
2023/12/24 01:09:22;;;;;;;;;;;;;;;17.51;39.80;99667.84;5070929;28;1901;-50
2023/12/24 01:11:48;;;;;;;;;;;;;;;16.68;41.57;99674.06;5059282;28;1832;-50
2023/12/24 01:14:13;;;;;;;;;;;;;;;16.10;43.06;99675.25;5055783;28;1067;-46
2023/12/24 01:16:41;;;;;;;;;;;;;;;15.79;43.66;99670.16;5067098;28;1079;-48
2023/12/24 01:19:07;;;;;;;;;;;;;;;17.31;40.52;99686.38;5052666;28;1080;-46
2023/12/24 01:21:33;;;;;;;;;;;;;;;16.89;41.33;99696.50;5068221;28;1076;-49
2023/12/24 01:23:58;;;;;;;;;;;;;;;16.22;42.57;99692.06;5052105;28;1047;-48
2023/12/24 01:26:24;;;;;;;;;;;;;;;15.81;43.66;99695.38;5045994;28;1334;-48
2023/12/24 01:28:49;;;;;;;;;;;;;;;17.14;40.86;99711.69;5051409;28;1084;-48
2023/12/24 01:31:15;;;;;;;;;;;;;;;16.92;40.99;99698.63;5067834;28;1973;-50
2023/12/24 01:33:41;;;;;;;;;;;;;;;16.17;42.88;99703.94;5037774;28;1151;-48
2023/12/24 01:36:07;;;;;;;;;;;;;;;15.83;43.52;99699.47;5069909;28;913;-46
2023/12/24 01:38:33;;;;;;;;;;;;;;;16.87;41.38;99694.03;5044021;28;1374;-48
2023/12/24 01:40:58;;;;;;;;;;;;;;;17.03;40.85;99700.06;5072973;28;1961;-49
2023/12/24 01:43:25;;;;;;;;;;;;;;;16.17;43.00;99698.47;5068589;28;1019;-45
2023/12/24 01:45:50;;;;;;;;;;;;;;;15.84;43.45;99706.56;5049244;28;1291;-47
2023/12/24 01:48:16;;;;;;;;;;;;;;;16.62;41.96;99719.16;5065121;28;1107;-48
2023/12/24 01:50:42;;;;;;;;;;;;;;;17.42;40.21;99704.28;5037752;28;1985;-49
2023/12/24 01:53:07;;;;;;;;;;;;;;;16.48;42.26;99702.63;5037845;28;1091;-47
2023/12/24 01:55:33;;;;;;;;;;;;;;;15.94;43.58;99691.91;5066553;28;1046;-48
2023/12/24 01:57:58;;;;;;;;;;;;;;;16.15;43.01;99683.41;5057271;28;1237;-47
2023/12/24 02:00:24;;;;;;;;;;;;;;;17.53;40.17;99685.66;5056655;28;1094;-47
2023/12/24 02:02:50;;;;;;;;;;;;;;;16.61;41.74;99701.88;5044556;28;1259;-48
2023/12/24 02:05:16;;;;;;;;;;;;;;;16.08;42.99;99712.00;5046320;28;1086;-46
2023/12/24 02:07:41;;;;;;;;;;;;;;;15.86;43.78;99709.81;5037662;28;1211;-49
2023/12/24 02:10:07;;;;;;;;;;;;;;;16.88;41.36;99709.41;5049183;28;2055;-49
2023/12/24 02:12:34;;;;;;;;;;;;;;;17.37;40.45;99720.06;5060909;28;2265;-49
2023/12/24 02:14:59;;;;;;;;;;;;;;;16.46;42.36;99726.81;5061204;28;1012;-49
2023/12/24 02:17:25;;;;;;;;;;;;;;;15.96;43.48;99730.81;5075264;28;1088;-48
2023/12/24 02:19:50;;;;;;;;;;;;;;;15.91;43.66;99733.63;5046261;28;1017;-49
2023/12/24 02:22:16;;;;;;;;;;;;;;;17.35;40.60;99739.59;5041514;28;1369;-44
2023/12/24 02:24:42;;;;;;;;;;;;;;;16.94;41.25;99729.34;5045909;28;1099;-48
2023/12/24 02:27:16;;;;;;;;;;;;;;;16.19;42.65;99737.34;5076493;28;1032;-49
2023/12/24 02:29:42;;;;;;;;;;;;;;;15.84;43.79;99744.97;5044179;28;1961;-51
2023/12/24 02:32:10;;;;;;;;;;;;;;;17.33;40.38;99749.25;5047738;28;1118;-49
2023/12/24 02:34:36;;;;;;;;;;;;;;;17.01;41.04;99760.00;5060647;28;1539;-48
2023/12/24 02:37:01;;;;;;;;;;;;;;;16.31;42.47;99764.34;5060901;28;1138;-48
2023/12/24 02:39:27;;;;;;;;;;;;;;;15.88;43.60;99767.94;5041036;28;1115;-49
2023/12/24 02:41:52;;;;;;;;;;;;;;;16.62;42.02;99763.06;5058917;28;2382;-48
2023/12/24 02:44:18;;;;;;;;;;;;;;;17.69;39.74;99760.38;5070044;28;1090;-48
2023/12/24 02:46:43;;;;;;;;;;;;;;;16.60;42.01;99775.16;5078562;28;1090;-47
2023/12/24 02:49:10;;;;;;;;;;;;;;;16.12;43.00;99778.06;5071801;28;952;-46
2023/12/24 02:51:35;;;;;;;;;;;;;;;15.77;43.71;99782.84;5065581;28;1910;-49
2023/12/24 02:54:01;;;;;;;;;;;;;;;17.22;41.03;99773.34;5066686;28;1131;-50
2023/12/24 02:56:26;;;;;;;;;;;;;;;16.82;41.46;99779.22;5045008;28;1072;-50
2023/12/24 02:58:52;;;;;;;;;;;;;;;16.20;43.03;99812.22;5060401;28;2049;-48
2023/12/24 03:01:17;;;;;;;;;;;;;;;15.84;43.63;99816.22;5059732;28;933;-50
2023/12/24 03:03:43;;;;;;;;;;;;;;;17.13;41.03;99832.88;5060268;28;1217;-48
2023/12/24 03:06:09;;;;;;;;;;;;;;;16.86;41.57;99828.88;5064711;28;1119;-49
2023/12/24 03:08:34;;;;;;;;;;;;;;;16.22;42.79;99845.66;5067332;28;1194;-50
2023/12/24 03:11:01;;;;;;;;;;;;;;;15.87;43.97;99850.47;5053600;28;2440;-49
2023/12/24 03:13:27;;;;;;;;;;;;;;;17.20;41.10;99834.09;5077028;28;880;-50
2023/12/24 03:15:52;;;;;;;;;;;;;;;16.84;41.55;99853.06;5046791;28;1151;-47
2023/12/24 03:18:18;;;;;;;;;;;;;;;16.19;43.22;99851.75;5077943;28;1036;-49
2023/12/24 03:20:43;;;;;;;;;;;;;;;15.86;43.95;99854.31;5041927;28;1182;-49
2023/12/24 03:23:09;;;;;;;;;;;;;;;15.83;44.07;99843.94;5068058;28;1110;-49
2023/12/24 03:25:34;;;;;;;;;;;;;;;17.34;40.82;99834.13;5076110;28;963;-50
2023/12/24 03:28:00;;;;;;;;;;;;;;;16.95;41.47;99835.34;5066882;28;1150;-50
2023/12/24 03:30:25;;;;;;;;;;;;;;;16.19;43.15;99833.34;5071587;28;1993;-48
2023/12/24 03:32:51;;;;;;;;;;;;;;;15.89;43.67;99846.34;5068944;28;1229;-49
2023/12/24 03:35:17;;;;;;;;;;;;;;;16.64;42.13;99833.03;5042569;28;1178;-49
2023/12/24 03:37:42;;;;;;;;;;;;;;;17.36;40.71;99828.34;5068612;28;973;-49
2023/12/24 03:40:08;;;;;;;;;;;;;;;16.40;42.49;99849.56;5059720;28;1338;-45
2023/12/24 03:42:33;;;;;;;;;;;;;;;15.99;43.63;99853.63;5065132;28;2569;-48
2023/12/24 03:44:59;;;;;;;;;;;;;;;16.49;42.54;99855.19;5059310;28;1118;-50
2023/12/24 03:47:26;;;;;;;;;;;;;;;17.40;40.51;99848.59;5059247;28;1060;-48
2023/12/24 03:49:51;;;;;;;;;;;;;;;16.40;42.79;99863.28;5053037;28;1973;-49
2023/12/24 03:52:17;;;;;;;;;;;;;;;16.01;43.42;99872.53;5033681;28;1377;-49
2023/12/24 03:54:42;;;;;;;;;;;;;;;15.80;44.23;99880.97;5063814;28;1130;-47
2023/12/24 03:57:08;;;;;;;;;;;;;;;17.30;40.97;99885.31;5066935;28;1201;-49
2023/12/24 03:59:34;;;;;;;;;;;;;;;16.80;41.64;99890.44;5060948;28;1031;-48
2023/12/24 04:01:59;;;;;;;;;;;;;;;16.10;43.08;99892.69;5068426;28;1060;-49
2023/12/24 04:04:25;;;;;;;;;;;;;;;15.79;43.93;99906.75;5077076;28;1011;-49
2023/12/24 04:06:50;;;;;;;;;;;;;;;16.40;42.90;99915.41;5077022;28;1027;-48
2023/12/24 04:09:16;;;;;;;;;;;;;;;17.52;40.25;99925.09;5077164;28;1402;-48
2023/12/24 04:11:42;;;;;;;;;;;;;;;16.46;42.63;99936.19;5076671;28;2432;-48
2023/12/24 04:14:08;;;;;;;;;;;;;;;16.01;43.33;99939.16;5077101;28;1068;-50
2023/12/24 04:16:33;;;;;;;;;;;;;;;15.78;44.15;99938.00;5048333;28;1103;-48
2023/12/24 04:18:59;;;;;;;;;;;;;;;17.06;41.26;99943.09;5073933;28;1075;-50
2023/12/24 04:21:25;;;;;;;;;;;;;;;17.14;41.07;99947.09;5072644;28;1040;-50
2023/12/24 04:23:50;;;;;;;;;;;;;;;16.28;42.86;99942.44;5049636;28;1086;-48
2023/12/24 04:26:16;;;;;;;;;;;;;;;15.85;43.71;99960.44;5076732;28;1039;-48
2023/12/24 04:28:41;;;;;;;;;;;;;;;16.19;43.08;99970.50;5076689;28;1020;-50
2023/12/24 04:31:08;;;;;;;;;;;;;;;17.60;40.10;99973.88;5045680;28;1910;-52
2023/12/24 04:33:34;;;;;;;;;;;;;;;16.77;41.57;99977.78;5070188;28;1178;-52
2023/12/24 04:36:00;;;;;;;;;;;;;;;16.16;42.95;99979.31;5076479;28;1043;-48
2023/12/24 04:38:25;;;;;;;;;;;;;;;15.88;43.91;99997.41;5074110;28;980;-50
2023/12/24 04:40:51;;;;;;;;;;;;;;;16.67;42.08;100007.28;5058340;28;2267;-52
2023/12/24 04:43:17;;;;;;;;;;;;;;;17.69;39.71;100005.06;5059813;28;1146;-55
2023/12/24 04:45:42;;;;;;;;;;;;;;;16.60;42.17;100011.19;5040952;28;1112;-54
2023/12/24 04:48:08;;;;;;;;;;;;;;;16.20;43.16;100026.16;5055905;28;1322;-50
2023/12/24 04:50:34;;;;;;;;;;;;;;;15.76;44.30;100024.34;5048702;28;1902;-54
2023/12/24 04:52:59;;;;;;;;;;;;;;;17.27;40.78;100024.09;5075707;28;1294;-53
2023/12/24 04:55:25;;;;;;;;;;;;;;;16.72;41.68;100027.28;5073222;28;1105;-52
2023/12/24 04:57:50;;;;;;;;;;;;;;;16.14;43.03;100032.81;5058255;28;1362;-55
2023/12/24 05:00:16;;;;;;;;;;;;;;;16.22;43.25;100043.16;5064874;28;1131;-53
2023/12/24 05:02:42;;;;;;;;;;;;;;;17.66;40.06;100035.09;5075603;28;1123;-51
2023/12/24 05:05:08;;;;;;;;;;;;;;;16.75;41.70;100032.16;5057003;28;1388;-51
2023/12/24 05:07:34;;;;;;;;;;;;;;;16.20;43.06;100043.47;5075385;28;1007;-52
2023/12/24 05:10:01;;;;;;;;;;;;;;;15.90;43.79;100039.06;5062688;28;1974;-51
2023/12/24 05:12:26;;;;;;;;;;;;;;;17.16;40.92;100049.28;5042735;28;2499;-52
2023/12/24 05:14:54;;;;;;;;;;;;;;;17.16;40.89;100052.03;5052008;28;1507;-51
2023/12/24 05:17:20;;;;;;;;;;;;;;;16.36;42.48;100041.38;5049851;28;1135;-46
2023/12/24 05:19:45;;;;;;;;;;;;;;;15.99;43.39;100056.53;5076613;28;1122;-51
2023/12/24 05:22:11;;;;;;;;;;;;;;;16.39;42.69;100057.25;5057987;28;1043;-52
2023/12/24 05:24:36;;;;;;;;;;;;;;;17.60;39.93;100048.91;5072438;28;1142;-45
2023/12/24 05:27:02;;;;;;;;;;;;;;;16.77;41.96;100056.56;5067208;28;1457;-47
2023/12/24 05:29:27;;;;;;;;;;;;;;;17.61;39.98;100060.72;5071202;28;1158;-49
2023/12/24 05:31:54;;;;;;;;;;;;;;;16.72;41.85;100067.63;5067465;28;1984;-49
2023/12/24 05:34:19;;;;;;;;;;;;;;;17.29;41.04;100078.75;5071224;28;1155;-48
2023/12/24 05:36:47;;;;;;;;;;;;;;;16.89;41.37;100075.44;5065157;28;1019;-48
2023/12/24 05:39:14;;;;;;;;;;;;;;;16.85;41.87;100088.09;5076095;28;1188;-46
2023/12/24 05:41:42;;;;;;;;;;;;;;;18.01;39.11;100094.25;5070126;28;2349;-51
2023/12/24 05:44:08;;;;;;;;;;;;;;;16.83;41.89;100112.25;5075779;28;1058;-47
2023/12/24 05:46:33;;;;;;;;;;;;;;;17.51;40.49;100111.16;5072383;28;1074;-50
2023/12/24 05:48:59;;;;;;;;;;;;;;;17.47;40.41;100106.56;5064957;28;1048;-48
2023/12/24 05:51:24;;;;;;;;;;;;;;;16.96;41.72;100119.84;5073065;28;2051;-48
2023/12/24 05:53:50;;;;;;;;;;;;;;;18.53;38.30;100127.22;5055549;28;1004;-48
2023/12/24 05:56:15;;;;;;;;;;;;;;;17.21;41.17;100134.38;5071870;28;1055;-50
2023/12/24 05:58:41;;;;;;;;;;;;;;;16.93;41.76;100147.88;5071943;28;1174;-46
2023/12/24 06:01:06;;;;;;;;;;;;;;;17.66;39.97;100143.13;5068536;28;1292;-50
2023/12/24 06:03:32;;;;;;;;;;;;;;;16.81;41.75;100156.47;5064775;28;1321;-50
2023/12/24 06:05:57;;;;;;;;;;;;;;;18.23;39.07;100147.81;5069055;28;1091;-51
2023/12/24 06:08:23;;;;;;;;;;;;;;;17.32;40.86;100149.63;5055412;28;1099;-51
2023/12/24 06:10:48;;;;;;;;;;;;;;;17.92;39.86;100151.88;5056741;28;1986;-50
2023/12/24 06:13:14;;;;;;;;;;;;;;;18.33;38.89;100150.41;5069835;28;1046;-48
2023/12/24 06:15:39;;;;;;;;;;;;;;;17.22;41.33;100153.31;5062676;28;1015;-51
2023/12/24 06:18:05;;;;;;;;;;;;;;;18.81;37.83;100154.81;5075340;28;1003;-49
2023/12/24 06:20:32;;;;;;;;;;;;;;;17.98;39.42;100149.88;5075305;28;1218;-49
2023/12/24 06:22:58;;;;;;;;;;;;;;;17.23;40.97;100148.63;5075422;28;1560;-51
2023/12/24 06:25:23;;;;;;;;;;;;;;;18.02;39.61;100150.91;5055725;28;997;-46
2023/12/24 06:27:49;;;;;;;;;;;;;;;17.28;41.16;100151.34;5069510;28;1031;-49
2023/12/24 06:30:14;;;;;;;;;;;;;;;17.84;40.14;100157.19;5062343;28;1972;-47
2023/12/24 06:32:44;;;;;;;;;;;;;;;18.20;39.17;100159.44;5075163;28;1083;-48
2023/12/24 06:35:09;;;;;;;;;;;;;;;17.26;41.14;100164.53;5075334;28;1040;-52
2023/12/24 06:37:35;;;;;;;;;;;;;;;18.78;38.08;100161.75;5073027;28;1087;-52
2023/12/24 06:40:00;;;;;;;;;;;;;;;17.73;40.08;100171.09;5061960;28;1182;-48
2023/12/24 06:42:26;;;;;;;;;;;;;;;17.31;41.15;100164.47;5069807;28;2610;-50
2023/12/24 06:44:51;;;;;;;;;;;;;;;18.28;39.16;100176.06;5074796;28;1186;-51
2023/12/24 06:47:17;;;;;;;;;;;;;;;17.35;41.24;100184.78;5075521;28;1083;-47
2023/12/24 06:49:44;;;;;;;;;;;;;;;19.00;37.76;100187.00;5070563;28;1978;-48
2023/12/24 06:52:12;;;;;;;;;;;;;;;18.06;39.41;100193.22;5065802;28;1051;-48
2023/12/24 06:54:38;;;;;;;;;;;;;;;17.52;40.46;100194.47;5071846;28;1163;-49
2023/12/24 06:57:04;;;;;;;;;;;;;;;18.09;39.67;100197.28;5067035;28;1103;-51
2023/12/24 06:59:30;;;;;;;;;;;;;;;17.83;39.82;100199.56;5071875;28;1120;-49
2023/12/24 07:01:55;;;;;;;;;;;;;;;17.20;41.19;100198.69;5060438;28;1165;-47
2023/12/24 07:04:21;;;;;;;;;;;;;;;18.51;38.55;100191.97;5075766;28;1039;-50
2023/12/24 07:06:46;;;;;;;;;;;;;;;17.51;40.67;100185.38;5078703;28;1700;-49
2023/12/24 07:09:12;;;;;;;;;;;;;;;18.26;39.38;100188.53;5078227;28;1282;-49
2023/12/24 07:11:38;;;;;;;;;;;;;;;18.07;39.41;100203.09;5070531;28;1898;-49
2023/12/24 07:14:03;;;;;;;;;;;;;;;17.35;41.06;100209.50;5071296;28;1154;-48
2023/12/24 07:16:29;;;;;;;;;;;;;;;17.44;41.13;100204.16;5078261;28;976;-48
2023/12/24 07:18:54;;;;;;;;;;;;;;;18.06;39.59;100195.97;5073980;28;1118;-48
2023/12/24 07:21:20;;;;;;;;;;;;;;;17.29;41.02;100196.91;5069141;28;1063;-48
2023/12/24 07:23:46;;;;;;;;;;;;;;;18.47;38.73;100192.56;5077921;28;1032;-52
2023/12/24 07:26:12;;;;;;;;;;;;;;;17.62;40.57;100186.09;5076656;28;1104;-52
2023/12/24 07:28:37;;;;;;;;;;;;;;;17.31;41.21;100200.22;5074401;28;1062;-44
2023/12/24 07:31:03;;;;;;;;;;;;;;;18.16;39.30;100200.50;5069042;28;1951;-53
2023/12/24 07:33:28;;;;;;;;;;;;;;;17.35;40.90;100203.16;5077963;28;988;-52
2023/12/24 07:35:54;;;;;;;;;;;;;;;18.23;39.50;100205.59;5068386;28;1055;-47
2023/12/24 07:38:19;;;;;;;;;;;;;;;17.72;40.04;100201.63;5067798;28;1024;-49
2023/12/24 07:40:45;;;;;;;;;;;;;;;17.08;41.58;100210.91;5077717;28;2316;-51
2023/12/24 07:43:10;;;;;;;;;;;;;;;17.34;41.37;100218.84;5063127;28;1111;-51
2023/12/24 07:45:36;;;;;;;;;;;;;;;17.82;40.04;100215.22;5058080;28;1032;-47
2023/12/24 07:48:01;;;;;;;;;;;;;;;17.20;41.62;100226.16;5059836;28;1052;-47
2023/12/24 07:50:27;;;;;;;;;;;;;;;18.87;38.02;100229.91;5076658;28;1968;-49
2023/12/24 07:52:52;;;;;;;;;;;;;;;17.76;40.23;100238.44;5075790;28;1087;-51
2023/12/24 07:55:18;;;;;;;;;;;;;;;17.19;41.25;100243.75;5066271;28;1071;-49
2023/12/24 07:57:43;;;;;;;;;;;;;;;17.17;41.46;100243.22;5075694;28;1042;-49
2023/12/24 08:00:09;;;;;;;;;;;;;;;18.26;39.08;100240.81;5066105;28;921;-52
2023/12/24 08:02:40;;;;;;;;;;;;;;;17.27;41.22;100246.66;5069055;28;1150;-49
2023/12/24 08:05:06;;;;;;;;;;;;;;;17.56;40.79;100245.00;5077470;28;1102;-49
2023/12/24 08:07:32;;;;;;;;;;;;;;;18.23;39.09;100244.97;5063528;28;1118;-50
2023/12/24 08:09:57;;;;;;;;;;;;;;;17.32;41.20;100243.06;5077041;28;1897;-51
2023/12/24 08:12:23;;;;;;;;;;;;;;;17.79;40.19;100252.41;5077790;28;2383;-51
2023/12/24 08:14:48;;;;;;;;;;;;;;;17.70;40.42;100237.66;5075089;28;899;-51
2023/12/24 08:17:14;;;;;;;;;;;;;;;17.15;41.28;100237.19;5076760;28;1174;-52
2023/12/24 08:19:39;;;;;;;;;;;;;;;18.19;39.59;100237.59;5068228;28;1016;-49
2023/12/24 08:22:05;;;;;;;;;;;;;;;17.47;40.96;100242.06;5057048;28;1029;-49
2023/12/24 08:24:31;;;;;;;;;;;;;;;18.09;39.87;100246.81;5057390;28;1040;-51
2023/12/24 08:26:57;;;;;;;;;;;;;;;18.56;38.61;100241.44;5041721;28;1158;-50
2023/12/24 08:29:22;;;;;;;;;;;;;;;17.53;40.86;100253.81;5077120;28;987;-49
2023/12/24 08:31:48;;;;;;;;;;;;;;;18.02;40.11;100260.09;5076442;28;1957;-48
2023/12/24 08:34:13;;;;;;;;;;;;;;;17.65;40.63;100245.16;5076870;28;1090;-47
2023/12/24 08:36:39;;;;;;;;;;;;;;;17.24;41.21;100246.44;5064733;28;1031;-49
2023/12/24 08:39:04;;;;;;;;;;;;;;;18.34;39.09;100245.66;5065575;28;861;-50
2023/12/24 08:41:30;;;;;;;;;;;;;;;17.30;41.46;100256.28;5074643;28;2476;-48
2023/12/24 08:43:55;;;;;;;;;;;;;;;18.64;38.77;100249.84;5065237;28;1124;-49
2023/12/24 08:46:21;;;;;;;;;;;;;;;18.29;39.32;100264.97;5076694;28;999;-50
2023/12/24 08:48:46;;;;;;;;;;;;;;;17.54;40.72;100267.25;5068812;28;1118;-49
2023/12/24 08:51:12;;;;;;;;;;;;;;;17.72;40.65;100271.19;5070369;28;1917;-49
2023/12/24 08:53:37;;;;;;;;;;;;;;;17.87;40.17;100272.94;5076876;28;1033;-52
2023/12/24 08:56:03;;;;;;;;;;;;;;;17.88;40.43;100274.56;5063356;28;1135;-49
2023/12/24 08:58:29;;;;;;;;;;;;;;;19.31;37.49;100283.72;5076396;28;1043;-51
2023/12/24 09:00:54;;;;;;;;;;;;;;;17.79;40.39;100285.41;5076459;28;1142;-51
2023/12/24 09:03:20;;;;;;;;;;;;;;;17.34;41.32;100267.50;5075862;28;1015;-49
2023/12/24 09:05:46;;;;;;;;;;;;;;;18.60;38.84;100276.31;5076001;28;1079;-48
2023/12/24 09:08:13;;;;;;;;;;;;;;;17.73;40.60;100294.00;5076103;28;1193;-47
2023/12/24 09:10:38;;;;;;;;;;;;;;;17.28;41.42;100302.47;5076798;28;1910;-46
2023/12/24 09:13:04;;;;;;;;;;;;;;;18.50;39.18;100292.22;5063798;28;1049;-48
2023/12/24 09:15:29;;;;;;;;;;;;;;;17.64;40.52;100285.56;5075991;28;1102;-51
2023/12/24 09:17:55;;;;;;;;;;;;;;;17.16;41.74;100297.34;5075976;28;1066;-51
2023/12/24 09:20:20;;;;;;;;;;;;;;;18.42;39.25;100296.44;5062525;28;1099;-48
2023/12/24 09:22:46;;;;;;;;;;;;;;;17.62;40.56;100294.13;5056069;28;1036;-51
2023/12/24 09:25:11;;;;;;;;;;;;;;;18.00;40.02;100296.16;5056618;28;1027;-51
2023/12/24 09:27:37;;;;;;;;;;;;;;;18.53;38.86;100297.13;5055600;28;876;-52
2023/12/24 09:30:04;;;;;;;;;;;;;;;17.55;40.83;100295.59;5069762;28;1902;-50
2023/12/24 09:32:32;;;;;;;;;;;;;;;17.29;41.62;100287.59;5063164;28;1084;-49
2023/12/24 09:34:58;;;;;;;;;;;;;;;17.77;40.23;100282.13;5075490;28;1061;-51
2023/12/24 09:37:24;;;;;;;;;;;;;;;17.21;41.76;100280.00;5068541;28;1166;-51
2023/12/24 09:39:49;;;;;;;;;;;;;;;17.88;40.43;100282.00;5056649;28;1051;-51
2023/12/24 09:42:15;;;;;;;;;;;;;;;17.57;40.87;100287.84;5070402;28;2074;-48
2023/12/24 09:44:40;;;;;;;;;;;;;;;18.12;39.72;100288.31;5075478;28;1034;-51
2023/12/24 09:47:06;;;;;;;;;;;;;;;18.97;37.94;100282.94;5076450;28;1000;-49
2023/12/24 09:49:31;;;;;;;;;;;;;;;17.81;40.43;100290.63;5075394;28;1214;-51
2023/12/24 09:51:57;;;;;;;;;;;;;;;17.25;41.39;100289.28;5055323;28;1918;-49
2023/12/24 09:54:22;;;;;;;;;;;;;;;18.09;40.05;100288.91;5038608;28;1071;-51
2023/12/24 09:56:48;;;;;;;;;;;;;;;17.56;40.74;100297.25;5057632;28;1056;-52
2023/12/24 09:59:14;;;;;;;;;;;;;;;17.13;41.67;100299.88;5075068;28;1224;-49
2023/12/24 10:01:40;;;;;;;;;;;;;;;18.05;39.82;100287.88;5075806;28;1118;-48
2023/12/24 10:04:06;;;;;;;;;;;;;;;17.81;40.40;100300.78;5060941;28;969;-48
2023/12/24 10:06:32;;;;;;;;;;;;;;;19.25;37.56;100284.91;5037710;28;1413;-51
2023/12/24 10:08:57;;;;;;;;;;;;;;;15.46;45.63;100275.53;5050995;28;1272;-52
2023/12/24 10:11:23;;;;;;;;;;;;;;;18.07;40.52;100269.13;5056683;28;1886;-47
2023/12/24 10:14:07;;;;;;;;;;;;;;;19.24;37.74;100262.06;5055684;28;996;-51
2023/12/24 10:16:41;;;;;;;;;;;;;;;15.46;46.57;100262.66;5067838;28;973;-49
2023/12/24 10:19:06;;;;;;;;;;;;;;;18.78;38.74;100260.09;5075068;28;1129;-51
2023/12/24 10:21:32;;;;;;;;;;;;;;;18.11;40.07;100248.16;5075411;28;1011;-50
2023/12/24 10:24:06;;;;;;;;;;;;;;;17.49;41.32;100237.09;5074953;28;1023;-51
2023/12/24 10:26:32;;;;;;;;;;;;;;;17.23;41.60;100237.38;5064103;28;1058;-44
2023/12/24 10:28:57;;;;;;;;;;;;;;;17.01;42.20;100240.63;5073581;28;1139;-49
2023/12/24 10:31:23;;;;;;;;;;;;;;;18.38;39.71;100241.16;5075859;28;1977;-48
2023/12/24 10:33:49;;;;;;;;;;;;;;;17.43;41.54;100238.25;5070718;28;1031;-51
2023/12/24 10:36:15;;;;;;;;;;;;;;;18.36;39.75;100232.38;5056582;28;1292;-48
2023/12/24 10:38:40;;;;;;;;;;;;;;;18.48;39.21;100212.63;5047301;28;1183;-49
2023/12/24 10:41:08;;;;;;;;;;;;;;;17.51;41.31;100217.56;5067528;28;1860;-48
2023/12/24 10:43:34;;;;;;;;;;;;;;;17.19;41.56;100221.78;5078001;28;1126;-51
2023/12/24 10:45:59;;;;;;;;;;;;;;;17.89;40.53;100228.63;5079190;28;1159;-51
2023/12/24 10:48:25;;;;;;;;;;;;;;;17.18;41.86;100222.88;5078676;28;1044;-51
2023/12/24 10:50:50;;;;;;;;;;;;;;;17.04;41.87;100220.81;5078033;28;2042;-50
2023/12/24 10:53:16;;;;;;;;;;;;;;;18.05;40.16;100210.81;5073431;28;1067;-50
2023/12/24 10:55:44;;;;;;;;;;;;;;;17.23;41.67;100215.38;5079202;28;1015;-52
2023/12/24 10:58:19;;;;;;;;;;;;;;;17.26;41.82;100203.00;5074275;28;1174;-50
2023/12/24 11:00:45;;;;;;;;;;;;;;;17.84;40.65;100198.44;5048638;28;1028;-51
2023/12/24 11:03:10;;;;;;;;;;;;;;;17.06;41.86;100191.13;5057423;28;1128;-49
2023/12/24 11:05:46;;;;;;;;;;;;;;;16.88;42.04;100175.38;5066424;28;1142;-50
2023/12/24 11:08:20;;;;;;;;;;;;;;;17.49;41.50;100178.53;5066357;28;1267;-46
2023/12/24 11:11:03;;;;;;;;;;;;;;;17.74;40.70;100174.63;5077122;28;2311;-51
2023/12/24 11:13:31;;;;;;;;;;;;;;;17.84;40.97;100170.94;5069766;28;1080;-52
2023/12/24 11:15:57;;;;;;;;;;;;;;;18.95;38.25;100172.19;5069572;28;1191;-49
2023/12/24 11:18:58;;;;;;;;;;;;;;;17.63;41.17;100160.22;5069885;28;1127;-51
2023/12/24 11:21:23;;;;;;;;;;;;;;;17.16;41.89;100167.41;4988005;28;1262;-51
2023/12/24 11:24:07;;;;;;;;;;;;;;;18.71;38.87;100172.34;5041788;28;1096;-51
2023/12/24 11:26:33;;;;;;;;;;;;;;;17.52;41.37;100184.28;5058234;28;1040;-49
2023/12/24 11:28:59;;;;;;;;;;;;;;;17.15;42.03;100206.97;5076199;28;1338;-49
2023/12/24 11:31:25;;;;;;;;;;;;;;;17.00;42.28;100208.78;5078277;28;1980;-52
2023/12/24 11:33:50;;;;;;;;;;;;;;;17.99;40.30;100209.25;5065240;28;1174;-50
2023/12/24 11:36:16;;;;;;;;;;;;;;;17.06;42.22;100196.63;5078548;28;1101;-52
2023/12/24 11:38:42;;;;;;;;;;;;;;;17.62;41.44;100205.34;5078286;28;1143;-46
2023/12/24 11:41:09;;;;;;;;;;;;;;;17.39;41.75;100205.06;5068777;28;2394;-48
2023/12/24 11:43:35;;;;;;;;;;;;;;;16.92;42.38;100214.91;5070025;28;1162;-47
2023/12/24 11:46:00;;;;;;;;;;;;;;;18.35;39.68;100216.97;5070398;28;1154;-50
2023/12/24 11:48:30;;;;;;;;;;;;;;;17.26;41.95;100234.06;5077927;28;1039;-49
2023/12/24 11:51:00;;;;;;;;;;;;;;;18.50;39.63;100226.13;5078262;28;1890;-52
2023/12/24 11:53:26;;;;;;;;;;;;;;;17.95;40.56;100231.03;5076463;28;929;-52
2023/12/24 11:56:13;;;;;;;;;;;;;;;17.24;42.12;100238.22;5064382;28;1100;-48
2023/12/24 11:58:39;;;;;;;;;;;;;;;18.20;40.13;100253.00;5067653;28;1048;-48
2023/12/24 12:01:05;;;;;;;;;;;;;;;17.33;41.86;100261.19;5074385;28;979;-46
2023/12/24 12:03:34;;;;;;;;;;;;;;;17.08;42.01;100268.59;5065038;28;1119;-53
2023/12/24 12:06:00;;;;;;;;;;;;;;;17.87;40.87;100261.94;5074570;28;1138;-51
2023/12/24 12:08:27;;;;;;;;;;;;;;;17.13;42.18;100256.72;5077201;28;1046;-51
2023/12/24 12:10:52;;;;;;;;;;;;;;;17.57;41.41;100269.44;5075376;28;2275;-50
2023/12/24 12:13:18;;;;;;;;;;;;;;;17.44;41.56;100262.69;5066916;28;1071;-51
2023/12/24 12:15:43;;;;;;;;;;;;;;;17.73;41.24;100267.31;5070953;28;1159;-48
2023/12/24 12:18:09;;;;;;;;;;;;;;;18.76;38.74;100256.81;5067419;28;1119;-47
2023/12/24 12:20:34;;;;;;;;;;;;;;;17.55;41.13;100257.09;5073564;28;1031;-48
2023/12/24 12:23:01;;;;;;;;;;;;;;;17.17;42.01;100254.22;5057432;28;1127;-50
2023/12/24 12:25:26;;;;;;;;;;;;;;;18.31;39.88;100265.47;5074363;28;1069;-49
2023/12/24 12:27:52;;;;;;;;;;;;;;;17.29;42.16;100265.63;5066509;28;1046;-50
2023/12/24 12:30:19;;;;;;;;;;;;;;;17.33;41.92;100271.34;5074033;28;1966;-49
2023/12/24 12:32:45;;;;;;;;;;;;;;;17.68;41.20;100281.13;5076931;28;980;-50
2023/12/24 12:35:11;;;;;;;;;;;;;;;17.14;42.28;100296.00;5063897;28;1135;-51
2023/12/24 12:37:36;;;;;;;;;;;;;;;18.80;39.06;100300.00;5077040;28;1111;-47
2023/12/24 12:40:03;;;;;;;;;;;;;;;17.51;41.64;100291.78;5075521;28;1178;-50
2023/12/24 12:42:29;;;;;;;;;;;;;;;17.20;42.17;100292.09;5076576;28;2570;-48
2023/12/24 12:44:54;;;;;;;;;;;;;;;18.07;40.63;100285.63;5076972;28;1581;-51